createdAt,value
2018-12-08T00:00:51.368Z,1.55
2018-12-08T00:01:53.867Z,1.90
2018-12-08T00:02:56.426Z,1.87
2018-12-08T00:03:59.082Z,2.10
2018-12-08T00:05:01.722Z,1.80
2018-12-08T00:06:04.262Z,2.05
2018-12-08T00:07:06.819Z,2.05
2018-12-08T00:08:09.330Z,1.92
2018-12-08T00:09:11.837Z,1.80
2018-12-08T00:10:14.398Z,1.85
2018-12-08T00:11:16.947Z,1.72
2018-12-08T00:12:19.647Z,2.08
2018-12-08T00:13:22.993Z,2.10
2018-12-08T00:14:25.534Z,2.02
2018-12-08T00:15:28.040Z,2.25
2018-12-08T00:16:30.588Z,2.05
2018-12-08T00:17:33.096Z,2.00
2018-12-08T00:18:35.610Z,2.10
2018-12-08T00:19:38.146Z,2.30
2018-12-08T00:20:40.661Z,1.90
2018-12-08T00:21:43.210Z,3.02
2018-12-08T00:22:45.725Z,2.55
2018-12-08T00:23:48.247Z,2.17
2018-12-08T00:24:50.745Z,2.80
2018-12-08T00:25:53.289Z,2.72
2018-12-08T00:26:55.794Z,2.70
2018-12-08T00:27:58.297Z,2.65
2018-12-08T00:29:00.813Z,2.30
2018-12-08T00:30:11.281Z,3.20
2018-12-08T00:31:25.774Z,2.55
2018-12-08T00:32:28.790Z,2.85
2018-12-08T00:33:31.302Z,3.30
2018-12-08T00:34:33.807Z,2.17
2018-12-08T00:35:36.345Z,2.30
2018-12-08T00:36:38.940Z,2.60
2018-12-08T00:37:41.446Z,3.20
2018-12-08T00:38:43.952Z,2.50
2018-12-08T00:39:46.478Z,2.47
2018-12-08T00:40:49.022Z,2.62
2018-12-08T00:41:51.574Z,2.77
2018-12-08T00:42:54.089Z,2.67
2018-12-08T00:43:56.609Z,3.20
2018-12-08T00:44:59.117Z,2.95
2018-12-08T00:46:01.725Z,2.25
2018-12-08T00:47:04.274Z,2.40
2018-12-08T00:48:06.773Z,3.02
2018-12-08T00:49:09.279Z,2.22
2018-12-08T00:50:11.786Z,2.05
2018-12-08T00:51:14.321Z,2.17
2018-12-08T00:52:16.826Z,2.37
2018-12-08T00:53:19.330Z,2.70
2018-12-08T00:54:21.870Z,3.10
2018-12-08T00:55:24.386Z,2.85
2018-12-08T00:56:27.029Z,2.20
2018-12-08T00:57:29.538Z,2.92
2018-12-08T00:58:32.050Z,2.30
2018-12-08T00:59:34.581Z,2.20
2018-12-08T01:00:37.088Z,1.70
2018-12-08T01:01:39.584Z,2.37
2018-12-08T01:02:42.096Z,2.55
2018-12-08T01:03:44.614Z,2.70
2018-12-08T01:04:47.167Z,2.30
2018-12-08T01:05:49.677Z,2.62
2018-12-08T01:06:52.180Z,1.95
2018-12-08T01:07:54.721Z,2.50
2018-12-08T01:08:57.289Z,2.37
2018-12-08T01:09:59.804Z,1.87
2018-12-08T01:11:02.362Z,1.80
2018-12-08T01:12:04.922Z,2.02
2018-12-08T01:13:07.504Z,2.15
2018-12-08T01:14:10.010Z,1.80
2018-12-08T01:15:12.573Z,2.75
2018-12-08T01:16:15.155Z,1.85
2018-12-08T01:17:17.661Z,1.37
2018-12-08T01:18:20.168Z,2.50
2018-12-08T01:19:22.675Z,2.22
2018-12-08T01:20:25.221Z,2.05
2018-12-08T01:21:27.718Z,1.82
2018-12-08T01:22:30.230Z,2.12
2018-12-08T01:23:32.733Z,2.05
2018-12-08T01:24:35.274Z,1.95
2018-12-08T01:25:37.781Z,1.70
2018-12-08T01:26:40.279Z,1.65
2018-12-08T01:27:42.834Z,1.82
2018-12-08T01:28:45.360Z,2.45
2018-12-08T01:29:47.908Z,2.10
2018-12-08T01:30:50.419Z,2.27
2018-12-08T01:31:52.917Z,1.42
2018-12-08T01:32:55.422Z,1.70
2018-12-08T01:33:57.970Z,1.70
2018-12-08T01:35:00.469Z,2.55
2018-12-08T01:36:03.068Z,2.60
2018-12-08T01:37:05.565Z,1.47
2018-12-08T01:38:08.109Z,1.85
2018-12-08T01:39:10.649Z,2.05
2018-12-08T01:40:13.156Z,2.37
2018-12-08T01:41:15.657Z,2.10
2018-12-08T01:42:18.171Z,1.65
2018-12-08T01:43:20.677Z,1.30
2018-12-08T01:44:23.200Z,1.75
2018-12-08T01:45:25.847Z,2.20
2018-12-08T01:46:28.366Z,1.87
2018-12-08T01:47:30.901Z,1.65
2018-12-08T01:48:33.402Z,1.40
2018-12-08T01:49:35.905Z,2.05
2018-12-08T01:50:38.444Z,1.87
2018-12-08T01:51:41.002Z,2.00
2018-12-08T01:52:43.546Z,2.08
2018-12-08T01:53:46.112Z,1.92
2018-12-08T01:54:48.620Z,1.55
2018-12-08T01:55:51.141Z,1.85
2018-12-08T01:56:53.698Z,1.80
2018-12-08T01:57:56.237Z,1.87
2018-12-08T01:58:58.769Z,1.75
2018-12-08T02:00:01.285Z,1.55
2018-12-08T02:01:03.845Z,1.95
2018-12-08T02:02:06.389Z,1.47
2018-12-08T02:03:08.926Z,1.95
2018-12-08T02:04:11.434Z,1.45
2018-12-08T02:05:13.940Z,1.92
2018-12-08T02:06:16.485Z,1.45
2018-12-08T02:07:19.045Z,1.62
2018-12-08T02:08:21.553Z,1.95
2018-12-08T02:09:24.063Z,1.65
2018-12-08T02:10:26.653Z,1.35
2018-12-08T02:11:29.159Z,1.67
2018-12-08T02:12:31.670Z,1.20
2018-12-08T02:13:34.168Z,1.50
2018-12-08T02:14:36.721Z,1.20
2018-12-08T02:15:39.258Z,1.20
2018-12-08T02:16:41.808Z,1.65
2018-12-08T02:17:44.313Z,1.45
2018-12-08T02:18:46.846Z,1.27
2018-12-08T02:19:49.357Z,1.20
2018-12-08T02:20:51.913Z,1.67
2018-12-08T02:21:54.501Z,1.30
2018-12-08T02:22:57.009Z,1.60
2018-12-08T02:23:59.516Z,1.85
2018-12-08T02:25:02.011Z,1.20
2018-12-08T02:26:04.546Z,1.52
2018-12-08T02:27:07.087Z,1.42
2018-12-08T02:28:09.589Z,1.70
2018-12-08T02:29:12.097Z,1.77
2018-12-08T02:30:14.721Z,2.02
2018-12-08T02:31:17.267Z,1.17
2018-12-08T02:32:19.880Z,1.10
2018-12-08T02:34:31.490Z,1.72
2018-12-08T02:35:34.058Z,1.50
2018-12-08T02:36:36.568Z,1.70
2018-12-08T02:37:39.181Z,1.47
2018-12-08T02:38:42.248Z,1.40
2018-12-08T02:39:44.949Z,1.27
2018-12-08T02:40:47.497Z,1.60
2018-12-08T02:41:50.013Z,1.60
2018-12-08T02:42:52.541Z,1.10
2018-12-08T02:43:55.047Z,1.10
2018-12-08T02:44:57.562Z,1.60
2018-12-08T02:46:00.108Z,1.17
2018-12-08T02:47:02.614Z,1.15
2018-12-08T02:48:05.128Z,1.37
2018-12-08T02:49:07.650Z,1.07
2018-12-08T02:50:10.213Z,1.15
2018-12-08T02:51:12.749Z,1.65
2018-12-08T02:52:15.261Z,1.10
2018-12-08T02:53:17.762Z,1.10
2018-12-08T02:54:20.271Z,1.22
2018-12-08T02:55:22.826Z,1.30
2018-12-08T02:56:25.333Z,1.27
2018-12-08T02:57:27.853Z,1.00
2018-12-08T02:58:30.361Z,1.27
2018-12-08T02:59:32.869Z,1.10
2018-12-08T03:00:35.417Z,1.05
2018-12-08T03:01:37.926Z,1.47
2018-12-08T03:02:40.446Z,1.85
2018-12-08T03:03:42.953Z,1.35
2018-12-08T03:04:45.498Z,1.65
2018-12-08T03:05:48.012Z,1.37
2018-12-08T03:06:50.565Z,1.30
2018-12-08T03:07:53.080Z,1.10
2018-12-08T03:08:55.625Z,1.20
2018-12-08T03:09:58.157Z,1.42
2018-12-08T03:11:00.665Z,1.45
2018-12-08T03:12:03.214Z,1.82
2018-12-08T03:13:05.729Z,1.40
2018-12-08T03:14:08.254Z,1.32
2018-12-08T03:15:10.769Z,1.30
2018-12-08T03:16:13.275Z,1.90
2018-12-08T03:17:15.833Z,1.70
2018-12-08T03:18:18.382Z,1.57
2018-12-08T03:19:20.889Z,1.17
2018-12-08T03:20:23.433Z,1.60
2018-12-08T03:21:25.945Z,1.60
2018-12-08T03:22:28.530Z,1.60
2018-12-08T03:23:31.065Z,1.70
2018-12-08T03:24:33.574Z,1.98
2018-12-08T03:25:36.081Z,2.15
2018-12-08T03:26:38.636Z,3.33
2018-12-08T03:27:41.137Z,1.80
2018-12-08T03:28:43.641Z,1.60
2018-12-08T03:29:46.139Z,1.72
2018-12-08T03:30:48.650Z,2.12
2018-12-08T03:31:51.196Z,1.70
2018-12-08T03:32:53.740Z,2.02
2018-12-08T03:33:56.275Z,1.80
2018-12-08T03:34:58.814Z,1.67
2018-12-08T03:36:01.321Z,2.08
2018-12-08T03:37:03.876Z,1.50
2018-12-08T03:38:06.378Z,1.98
2018-12-08T03:39:08.932Z,2.90
2018-12-08T03:40:11.534Z,1.82
2018-12-08T03:41:14.042Z,2.00
2018-12-08T03:42:16.553Z,2.40
2018-12-08T03:43:19.094Z,2.30
2018-12-08T03:44:21.604Z,2.12
2018-12-08T03:45:24.128Z,1.65
2018-12-08T03:46:26.715Z,1.87
2018-12-08T03:47:29.216Z,1.95
2018-12-08T03:48:32.272Z,2.10
2018-12-08T03:49:34.773Z,2.02
2018-12-08T03:50:37.313Z,2.37
2018-12-08T03:51:39.828Z,1.65
2018-12-08T03:52:42.337Z,1.60
2018-12-08T03:53:44.841Z,1.75
2018-12-08T03:54:47.347Z,1.85
2018-12-08T03:55:49.885Z,1.62
2018-12-08T03:56:52.437Z,1.80
2018-12-08T03:57:54.954Z,2.08
2018-12-08T03:58:57.466Z,1.90
2018-12-08T04:00:00.060Z,1.85
2018-12-08T04:01:02.557Z,1.50
2018-12-08T04:02:05.076Z,1.80
2018-12-08T04:03:07.685Z,1.67
2018-12-08T04:04:10.201Z,1.92
2018-12-08T04:05:12.790Z,1.85
2018-12-08T04:06:15.322Z,1.98
2018-12-08T04:07:17.823Z,1.60
2018-12-08T04:08:20.343Z,1.47
2018-12-08T04:09:22.844Z,2.10
2018-12-08T04:10:25.393Z,1.70
2018-12-08T04:11:27.908Z,2.30
2018-12-08T04:12:30.423Z,1.90
2018-12-08T04:13:32.934Z,1.65
2018-12-08T04:14:35.485Z,1.70
2018-12-08T04:15:38.021Z,2.10
2018-12-08T04:16:40.521Z,1.57
2018-12-08T04:17:43.025Z,1.45
2018-12-08T04:18:45.540Z,1.75
2018-12-08T04:19:48.047Z,2.12
2018-12-08T04:20:50.589Z,1.75
2018-12-08T04:21:53.094Z,1.20
2018-12-08T04:22:55.606Z,1.67
2018-12-08T04:23:58.113Z,1.32
2018-12-08T04:25:00.619Z,1.87
2018-12-08T04:26:03.165Z,1.70
2018-12-08T04:27:05.682Z,1.42
2018-12-08T04:28:08.189Z,1.67
2018-12-08T04:29:10.695Z,1.50
2018-12-08T04:30:13.257Z,1.70
2018-12-08T04:31:15.842Z,2.08
2018-12-08T04:32:18.350Z,2.10
2018-12-08T04:33:20.863Z,1.60
2018-12-08T04:34:23.369Z,1.80
2018-12-08T04:35:25.878Z,1.85
2018-12-08T04:36:28.435Z,1.95
2018-12-08T04:37:30.937Z,1.40
2018-12-08T04:38:33.443Z,1.35
2018-12-08T04:39:35.945Z,1.22
2018-12-08T04:40:38.449Z,1.82
2018-12-08T04:41:40.997Z,1.95
2018-12-08T04:42:43.505Z,1.30
2018-12-08T04:43:46.049Z,1.65
2018-12-08T04:44:48.549Z,1.55
2018-12-08T04:45:51.058Z,1.80
2018-12-08T04:46:53.561Z,1.22
2018-12-08T04:47:56.097Z,1.27
2018-12-08T04:48:58.603Z,1.22
2018-12-08T04:50:01.114Z,1.35
2018-12-08T04:51:03.623Z,1.47
2018-12-08T04:52:06.145Z,1.75
2018-12-08T04:53:08.704Z,1.55
2018-12-08T04:54:11.204Z,1.60
2018-12-08T04:55:13.708Z,1.50
2018-12-08T04:56:16.209Z,1.47
2018-12-08T04:57:18.725Z,1.50
2018-12-08T04:58:21.260Z,2.02
2018-12-08T04:59:23.764Z,1.70
2018-12-08T05:00:26.274Z,1.35
2018-12-08T05:01:28.779Z,1.25
2018-12-08T05:02:31.309Z,1.70
2018-12-08T05:03:33.862Z,1.52
2018-12-08T05:04:36.402Z,1.42
2018-12-08T05:05:38.920Z,1.65
2018-12-08T05:06:41.475Z,1.90
2018-12-08T05:07:43.988Z,1.60
2018-12-08T05:08:46.528Z,1.17
2018-12-08T05:09:49.065Z,1.22
2018-12-08T05:10:51.575Z,1.15
2018-12-08T05:11:54.080Z,1.50
2018-12-08T05:12:56.590Z,1.40
2018-12-08T05:13:59.095Z,1.10
2018-12-08T05:15:01.625Z,1.25
2018-12-08T05:16:04.221Z,1.30
2018-12-08T05:17:06.732Z,1.30
2018-12-08T05:18:09.243Z,1.40
2018-12-08T05:19:11.792Z,1.30
2018-12-08T05:20:14.304Z,1.52
2018-12-08T05:21:16.806Z,1.37
2018-12-08T05:22:19.357Z,1.05
2018-12-08T05:23:21.857Z,1.37
2018-12-08T05:24:24.469Z,1.37
2018-12-08T05:25:27.022Z,1.10
2018-12-08T05:26:29.526Z,1.52
2018-12-08T05:27:32.065Z,1.37
2018-12-08T05:28:34.588Z,1.40
2018-12-08T05:29:37.093Z,1.35
2018-12-08T05:30:39.593Z,1.55
2018-12-08T05:31:42.257Z,1.30
2018-12-08T05:32:44.759Z,1.25
2018-12-08T05:33:47.294Z,1.15
2018-12-08T05:34:49.818Z,1.17
2018-12-08T05:35:52.361Z,1.12
2018-12-08T05:36:54.913Z,1.50
2018-12-08T05:37:57.429Z,1.20
2018-12-08T05:38:59.961Z,1.55
2018-12-08T05:40:03.602Z,1.30
2018-12-08T05:41:06.149Z,1.98
2018-12-08T05:42:08.707Z,1.65
2018-12-08T05:43:11.237Z,1.57
2018-12-08T05:44:13.753Z,1.00
2018-12-08T05:45:16.307Z,1.40
2018-12-08T05:46:18.846Z,1.45
2018-12-08T05:47:21.349Z,1.40
2018-12-08T05:48:23.856Z,1.30
2018-12-08T05:49:26.381Z,1.70
2018-12-08T05:50:28.881Z,1.55
2018-12-08T05:51:31.465Z,1.60
2018-12-08T05:52:34.667Z,1.40
2018-12-08T05:53:37.305Z,1.57
2018-12-08T05:54:39.813Z,1.00
2018-12-08T05:55:42.346Z,1.42
2018-12-08T05:56:44.918Z,1.17
2018-12-08T05:57:47.454Z,1.70
2018-12-08T05:58:49.963Z,1.30
2018-12-08T05:59:52.469Z,1.35
2018-12-08T06:00:54.969Z,1.60
2018-12-08T06:01:57.502Z,1.55
2018-12-08T06:03:00.101Z,1.72
2018-12-08T06:04:02.613Z,1.40
2018-12-08T06:05:06.120Z,1.07
2018-12-08T06:06:08.625Z,1.55
2018-12-08T06:07:11.135Z,0.90
2018-12-08T06:08:13.666Z,1.30
2018-12-08T06:09:16.168Z,1.75
2018-12-08T06:10:18.674Z,1.50
2018-12-08T06:11:21.192Z,1.32
2018-12-08T06:12:23.705Z,1.35
2018-12-08T06:13:26.258Z,1.72
2018-12-08T06:14:28.761Z,1.22
2018-12-08T06:15:31.275Z,1.55
2018-12-08T06:16:33.781Z,1.50
2018-12-08T06:17:36.294Z,1.05
2018-12-08T06:18:38.831Z,1.50
2018-12-08T06:19:41.335Z,1.50
2018-12-08T06:20:43.870Z,1.00
2018-12-08T06:21:46.390Z,1.25
2018-12-08T06:22:48.921Z,1.10
2018-12-08T06:23:51.477Z,1.42
2018-12-08T06:24:54.025Z,1.42
2018-12-08T06:25:56.577Z,1.50
2018-12-08T06:26:59.229Z,2.02
2018-12-08T06:28:05.356Z,1.17
2018-12-08T06:29:07.864Z,1.15
2018-12-08T06:30:10.396Z,1.40
2018-12-08T06:31:12.896Z,0.95
2018-12-08T06:32:15.457Z,1.15
2018-12-08T06:33:17.952Z,1.42
2018-12-08T06:34:20.481Z,1.10
2018-12-08T06:35:22.984Z,1.10
2018-12-08T06:36:25.486Z,1.10
2018-12-08T06:37:28.001Z,1.00
2018-12-08T06:38:30.507Z,1.47
2018-12-08T06:39:33.031Z,1.60
2018-12-08T06:40:35.551Z,1.10
2018-12-08T06:41:38.054Z,1.25
2018-12-08T06:42:40.556Z,1.30
2018-12-08T06:43:43.082Z,1.10
2018-12-08T06:44:45.624Z,1.10
2018-12-08T06:45:48.137Z,1.20
2018-12-08T06:46:50.639Z,1.30
2018-12-08T06:47:53.143Z,1.45
2018-12-08T06:48:55.649Z,1.10
2018-12-08T06:49:58.249Z,1.25
2018-12-08T06:51:00.749Z,1.30
2018-12-08T06:52:03.249Z,1.02
2018-12-08T06:53:05.753Z,0.93
2018-12-08T06:54:08.258Z,0.90
2018-12-08T06:55:10.797Z,1.55
2018-12-08T06:56:13.309Z,0.98
2018-12-08T06:57:15.822Z,1.80
2018-12-08T06:58:18.326Z,1.10
2018-12-08T06:59:20.828Z,1.10
2018-12-08T07:00:23.422Z,1.17
2018-12-08T07:01:25.960Z,1.00
2018-12-08T07:02:28.469Z,1.15
2018-12-08T07:03:31.029Z,1.10
2018-12-08T07:04:33.653Z,1.42
2018-12-08T07:05:36.159Z,0.90
2018-12-08T07:06:38.694Z,1.00
2018-12-08T07:07:41.201Z,1.00
2018-12-08T07:08:43.701Z,0.95
2018-12-08T07:09:46.285Z,1.17
2018-12-08T07:10:49.252Z,0.93
2018-12-08T07:11:51.793Z,0.80
2018-12-08T07:12:54.295Z,1.15
2018-12-08T07:13:56.809Z,0.90
2018-12-08T07:14:59.309Z,1.42
2018-12-08T07:16:01.818Z,1.20
2018-12-08T07:17:04.370Z,1.07
2018-12-08T07:18:06.873Z,0.98
2018-12-08T07:19:09.373Z,1.10
2018-12-08T07:20:11.929Z,1.00
2018-12-08T07:21:14.439Z,2.05
2018-12-08T07:22:16.976Z,1.22
2018-12-08T07:23:19.510Z,1.62
2018-12-08T07:24:22.043Z,1.32
2018-12-08T07:25:24.665Z,2.80
2018-12-08T07:26:27.186Z,1.32
2018-12-08T07:27:29.805Z,1.30
2018-12-08T07:28:32.364Z,1.20
2018-12-08T07:29:34.870Z,1.37
2018-12-08T07:30:37.385Z,1.30
2018-12-08T07:31:39.891Z,1.32
2018-12-08T07:32:42.447Z,1.77
2018-12-08T07:33:44.993Z,1.47
2018-12-08T07:34:47.503Z,1.60
2018-12-08T07:35:50.001Z,1.15
2018-12-08T07:36:52.509Z,1.32
2018-12-08T07:37:55.019Z,1.67
2018-12-08T07:38:57.558Z,1.30
2018-12-08T07:40:00.062Z,1.42
2018-12-08T07:41:02.587Z,1.25
2018-12-08T07:42:05.145Z,1.40
2018-12-08T07:43:07.681Z,1.37
2018-12-08T07:44:10.195Z,1.17
2018-12-08T07:45:12.741Z,1.20
2018-12-08T07:46:15.281Z,1.02
2018-12-08T07:47:17.826Z,1.40
2018-12-08T07:48:20.325Z,1.27
2018-12-08T07:49:22.840Z,1.00
2018-12-08T07:50:25.393Z,1.35
2018-12-08T07:51:27.956Z,1.15
2018-12-08T07:52:30.461Z,1.15
2018-12-08T07:53:32.965Z,1.12
2018-12-08T07:54:35.514Z,1.62
2018-12-08T07:55:38.074Z,1.20
2018-12-08T07:56:40.573Z,1.27
2018-12-08T07:57:43.078Z,1.07
2018-12-08T07:58:45.590Z,2.12
2018-12-08T07:59:48.130Z,1.50
2018-12-08T08:00:50.634Z,0.80
2018-12-08T08:01:53.303Z,1.17
2018-12-08T08:02:55.809Z,0.80
2018-12-08T08:03:58.312Z,1.12
2018-12-08T08:05:00.852Z,1.10
2018-12-08T08:06:03.349Z,1.10
2018-12-08T08:07:05.850Z,1.20
2018-12-08T08:08:08.349Z,1.07
2018-12-08T08:09:10.942Z,1.02
2018-12-08T08:10:13.537Z,1.00
2018-12-08T08:11:16.042Z,1.72
2018-12-08T08:12:18.627Z,1.95
2018-12-08T08:13:21.125Z,1.82
2018-12-08T08:14:23.735Z,1.45
2018-12-08T08:15:26.233Z,1.15
2018-12-08T08:16:28.778Z,1.05
2018-12-08T08:17:31.324Z,1.35
2018-12-08T08:18:33.831Z,1.90
2018-12-08T08:19:36.334Z,1.22
2018-12-08T08:20:38.893Z,1.50
2018-12-08T08:21:41.394Z,1.40
2018-12-08T08:22:43.913Z,1.40
2018-12-08T08:23:46.436Z,1.15
2018-12-08T08:24:48.941Z,1.55
2018-12-08T08:25:51.473Z,1.10
2018-12-08T08:26:53.981Z,1.12
2018-12-08T08:27:56.484Z,0.90
2018-12-08T08:28:58.982Z,1.10
2018-12-08T08:30:01.521Z,1.40
2018-12-08T08:31:04.037Z,0.98
2018-12-08T08:32:06.538Z,0.90
2018-12-08T08:33:09.047Z,1.20
2018-12-08T08:34:11.562Z,1.22
2018-12-08T08:35:14.106Z,1.20
2018-12-08T08:36:16.641Z,1.25
2018-12-08T08:37:19.142Z,1.10
2018-12-08T08:38:21.645Z,1.12
2018-12-08T08:39:24.162Z,1.40
2018-12-08T08:40:26.706Z,1.12
2018-12-08T08:41:29.257Z,1.37
2018-12-08T08:42:31.760Z,1.00
2018-12-08T08:43:34.281Z,1.07
2018-12-08T08:44:36.782Z,1.57
2018-12-08T08:45:39.341Z,1.30
2018-12-08T08:46:41.840Z,0.98
2018-12-08T08:47:44.385Z,1.00
2018-12-08T08:48:46.885Z,1.05
2018-12-08T08:49:49.386Z,1.00
2018-12-08T08:50:51.889Z,0.93
2018-12-08T08:51:54.389Z,1.00
2018-12-08T08:52:56.946Z,1.00
2018-12-08T08:53:59.444Z,0.95
2018-12-08T08:55:01.950Z,0.90
2018-12-08T08:56:04.474Z,1.10
2018-12-08T08:57:07.001Z,0.80
2018-12-08T08:58:09.536Z,0.90
2018-12-08T08:59:12.081Z,0.85
2018-12-08T09:00:14.597Z,0.70
2018-12-08T09:01:17.104Z,0.85
2018-12-08T09:02:19.614Z,1.57
2018-12-08T09:03:22.161Z,1.10
2018-12-08T09:04:24.670Z,1.00
2018-12-08T09:05:27.186Z,0.90
2018-12-08T09:06:29.692Z,1.00
2018-12-08T09:07:32.243Z,1.35
2018-12-08T09:08:34.773Z,1.07
2018-12-08T09:09:37.306Z,0.70
2018-12-08T09:10:39.808Z,0.90
2018-12-08T09:11:42.310Z,0.80
2018-12-08T09:12:44.829Z,1.00
2018-12-08T09:13:47.356Z,0.90
2018-12-08T09:14:49.860Z,0.80
2018-12-08T09:15:52.397Z,0.75
2018-12-08T09:16:54.901Z,0.80
2018-12-08T09:17:57.414Z,1.00
2018-12-08T09:18:59.922Z,0.90
2018-12-08T09:20:02.484Z,1.20
2018-12-08T09:21:05.025Z,0.70
2018-12-08T09:22:07.610Z,0.72
2018-12-08T09:23:10.118Z,0.70
2018-12-08T09:24:12.676Z,0.80
2018-12-08T09:25:15.182Z,1.00
2018-12-08T09:26:17.719Z,1.32
2018-12-08T09:27:20.230Z,0.90
2018-12-08T09:28:22.738Z,0.90
2018-12-08T09:29:25.239Z,0.82
2018-12-08T09:30:27.745Z,0.82
2018-12-08T09:31:30.289Z,0.50
2018-12-08T09:32:32.798Z,0.95
2018-12-08T09:33:35.337Z,0.80
2018-12-08T09:34:37.937Z,0.98
2018-12-08T09:35:40.498Z,0.93
2018-12-08T09:36:43.097Z,0.70
2018-12-08T09:37:45.602Z,0.80
2018-12-08T09:38:48.111Z,1.10
2018-12-08T09:39:50.625Z,0.80
2018-12-08T09:40:53.133Z,0.80
2018-12-08T09:41:55.669Z,1.00
2018-12-08T09:42:58.169Z,0.95
2018-12-08T09:44:00.705Z,1.10
2018-12-08T09:45:03.256Z,1.20
2018-12-08T09:46:05.765Z,1.00
2018-12-08T09:47:08.273Z,0.80
2018-12-08T09:48:10.825Z,1.22
2018-12-08T09:49:13.320Z,0.72
2018-12-08T09:50:15.826Z,0.90
2018-12-08T09:51:18.356Z,0.90
2018-12-08T09:52:20.873Z,1.20
2018-12-08T09:53:23.382Z,0.98
2018-12-08T09:54:25.909Z,0.60
2018-12-08T09:55:28.435Z,0.80
2018-12-08T09:56:30.953Z,0.70
2018-12-08T09:57:33.491Z,1.00
2018-12-08T09:58:35.994Z,1.20
2018-12-08T09:59:38.561Z,0.95
2018-12-08T10:00:41.125Z,0.93
2018-12-08T10:01:43.684Z,0.80
2018-12-08T10:02:46.225Z,1.10
2018-12-08T10:03:48.778Z,0.90
2018-12-08T10:04:51.287Z,1.00
2018-12-08T10:05:53.821Z,0.80
2018-12-08T10:06:56.339Z,0.80
2018-12-08T10:07:58.925Z,1.00
2018-12-08T10:09:01.436Z,1.00
2018-12-08T10:10:05.334Z,0.90
2018-12-08T10:11:07.841Z,1.00
2018-12-08T10:12:10.353Z,1.00
2018-12-08T10:13:12.894Z,0.88
2018-12-08T10:14:15.392Z,1.20
2018-12-08T10:15:17.948Z,0.80
2018-12-08T10:16:20.454Z,0.90
2018-12-08T10:17:22.958Z,0.70
2018-12-08T10:18:25.458Z,1.20
2018-12-08T10:19:27.963Z,0.70
2018-12-08T10:20:30.503Z,0.98
2018-12-08T10:21:33.009Z,1.00
2018-12-08T10:22:35.518Z,0.75
2018-12-08T10:23:38.053Z,0.98
2018-12-08T10:24:40.589Z,1.20
2018-12-08T10:25:43.189Z,1.00
2018-12-08T10:26:45.692Z,1.15
2018-12-08T10:27:48.205Z,0.90
2018-12-08T10:28:50.736Z,1.10
2018-12-08T10:29:53.245Z,1.20
2018-12-08T10:30:55.795Z,1.00
2018-12-08T10:31:58.353Z,1.05
2018-12-08T10:33:00.858Z,1.15
2018-12-08T10:34:03.465Z,1.10
2018-12-08T10:35:10.222Z,1.30
2018-12-08T10:36:12.823Z,1.20
2018-12-08T10:37:15.370Z,1.20
2018-12-08T10:38:17.971Z,1.00
2018-12-08T10:39:20.520Z,1.35
2018-12-08T10:40:23.026Z,1.20
2018-12-08T10:41:25.554Z,1.55
2018-12-08T10:42:28.057Z,1.37
2018-12-08T10:43:30.604Z,1.55
2018-12-08T10:44:33.105Z,1.25
2018-12-08T10:45:35.613Z,2.20
2018-12-08T10:46:38.166Z,1.00
2018-12-08T10:47:40.669Z,1.25
2018-12-08T10:48:43.967Z,1.10
2018-12-08T10:49:46.593Z,1.00
2018-12-08T10:50:49.098Z,1.20
2018-12-08T10:51:51.601Z,0.90
2018-12-08T10:52:54.105Z,1.00
2018-12-08T10:53:56.644Z,1.42
2018-12-08T10:54:59.243Z,1.10
2018-12-08T10:56:01.754Z,0.95
2018-12-08T10:57:04.258Z,1.00
2018-12-08T10:58:06.758Z,1.40
2018-12-08T10:59:09.260Z,1.30
2018-12-08T11:00:13.853Z,1.50
2018-12-08T11:01:18.429Z,1.40
2018-12-08T11:02:26.539Z,1.05
2018-12-08T11:03:32.934Z,0.95
2018-12-08T11:04:35.486Z,1.40
2018-12-08T11:05:38.018Z,1.27
2018-12-08T11:06:40.539Z,1.15
2018-12-08T11:07:43.047Z,1.32
2018-12-08T11:08:45.547Z,1.17
2018-12-08T11:09:48.050Z,1.40
2018-12-08T11:10:50.646Z,0.88
2018-12-08T11:11:53.145Z,1.00
2018-12-08T11:12:55.647Z,1.45
2018-12-08T11:13:58.153Z,1.40
2018-12-08T11:15:01.040Z,1.30
2018-12-08T11:16:03.674Z,0.90
2018-12-08T11:17:06.393Z,1.27
2018-12-08T11:18:08.906Z,1.15
2018-12-08T11:19:11.457Z,0.70
2018-12-08T11:20:13.993Z,1.00
2018-12-08T11:21:16.502Z,1.05
2018-12-08T11:22:19.002Z,0.90
2018-12-08T11:23:21.509Z,1.00
2018-12-08T11:24:24.013Z,1.17
2018-12-08T11:25:26.562Z,0.85
2018-12-08T11:26:29.063Z,0.85
2018-12-08T11:27:31.561Z,0.82
2018-12-08T11:28:34.114Z,1.30
2018-12-08T11:29:36.629Z,1.30
2018-12-08T11:30:39.161Z,1.10
2018-12-08T11:31:41.662Z,1.32
2018-12-08T11:32:44.169Z,0.70
2018-12-08T11:33:46.664Z,1.15
2018-12-08T11:34:49.166Z,1.17
2018-12-08T11:35:51.713Z,1.10
2018-12-08T11:36:54.223Z,0.90
2018-12-08T11:37:56.808Z,1.10
2018-12-08T11:38:59.307Z,2.45
2018-12-08T11:40:01.805Z,1.00
2018-12-08T11:41:04.393Z,1.10
2018-12-08T11:42:06.941Z,0.90
2018-12-08T11:43:09.468Z,0.80
2018-12-08T11:44:12.633Z,1.10
2018-12-08T11:45:15.132Z,0.80
2018-12-08T11:46:17.667Z,1.12
2018-12-08T11:47:20.186Z,0.90
2018-12-08T11:48:22.689Z,0.90
2018-12-08T11:49:25.225Z,0.75
2018-12-08T11:50:27.722Z,1.20
2018-12-08T11:51:30.265Z,0.95
2018-12-08T11:52:32.778Z,1.10
2018-12-08T11:53:35.288Z,1.27
2018-12-08T11:54:37.791Z,0.75
2018-12-08T11:55:40.329Z,1.00
2018-12-08T11:56:42.834Z,1.07
2018-12-08T11:57:45.342Z,0.88
2018-12-08T11:58:47.842Z,0.80
2018-12-08T11:59:50.388Z,0.85
2018-12-08T12:00:52.941Z,1.10
2018-12-08T12:01:55.502Z,0.90
2018-12-08T12:02:58.061Z,0.90
2018-12-08T12:04:00.569Z,1.00
2018-12-08T12:05:03.506Z,1.30
2018-12-08T12:06:06.014Z,0.80
2018-12-08T12:07:08.599Z,1.20
2018-12-08T12:08:11.113Z,0.80
2018-12-08T12:09:13.785Z,0.95
2018-12-08T12:10:16.521Z,1.00
2018-12-08T12:11:19.073Z,1.27
2018-12-08T12:12:21.569Z,1.10
2018-12-08T12:13:24.085Z,1.27
2018-12-08T12:14:45.682Z,1.10
2018-12-08T12:15:48.218Z,1.20
2018-12-08T12:16:50.721Z,1.00
2018-12-08T12:17:53.231Z,1.17
2018-12-08T12:18:55.818Z,0.90
2018-12-08T12:19:58.319Z,1.10
2018-12-08T12:21:00.864Z,0.80
2018-12-08T12:22:03.470Z,0.80
2018-12-08T12:23:06.030Z,1.22
2018-12-08T12:24:08.533Z,1.22
2018-12-08T12:25:11.166Z,1.20
2018-12-08T12:26:13.670Z,1.02
2018-12-08T12:27:16.218Z,1.22
2018-12-08T12:28:18.751Z,1.20
2018-12-08T12:29:21.258Z,1.10
2018-12-08T12:30:23.849Z,1.20
2018-12-08T12:31:26.366Z,1.00
2018-12-08T12:32:28.881Z,1.17
2018-12-08T12:33:31.381Z,1.20
2018-12-08T12:34:33.930Z,1.22
2018-12-08T12:35:36.481Z,1.20
2018-12-08T12:36:38.989Z,1.40
2018-12-08T12:37:41.494Z,1.05
2018-12-08T12:38:43.994Z,1.30
2018-12-08T12:39:46.545Z,1.32
2018-12-08T12:40:49.078Z,1.30
2018-12-08T12:41:51.581Z,1.37
2018-12-08T12:42:54.078Z,1.10
2018-12-08T12:43:56.617Z,0.80
2018-12-08T12:44:59.113Z,1.75
2018-12-08T12:46:01.653Z,1.27
2018-12-08T12:47:04.164Z,1.25
2018-12-08T12:48:06.674Z,1.20
2018-12-08T12:49:09.235Z,0.98
2018-12-08T12:50:11.789Z,1.22
2018-12-08T12:51:14.326Z,0.90
2018-12-08T12:52:16.832Z,1.00
2018-12-08T12:53:21.318Z,0.93
2018-12-08T12:54:23.825Z,1.50
2018-12-08T12:55:26.327Z,1.42
2018-12-08T12:56:28.832Z,1.30
2018-12-08T12:57:31.333Z,1.40
2018-12-08T12:58:33.874Z,1.00
2018-12-08T12:59:36.382Z,1.20
2018-12-08T13:00:38.891Z,1.00
2018-12-08T13:01:41.492Z,1.10
2018-12-08T13:02:44.030Z,1.00
2018-12-08T13:03:46.582Z,1.60
2018-12-08T13:04:49.089Z,1.30
2018-12-08T13:05:51.593Z,1.50
2018-12-08T13:06:54.104Z,1.40
2018-12-08T13:07:56.638Z,1.50
2018-12-08T13:08:59.199Z,1.22
2018-12-08T13:10:01.698Z,1.20
2018-12-08T13:11:04.198Z,1.10
2018-12-08T13:12:06.794Z,1.10
2018-12-08T13:13:09.303Z,1.32
2018-12-08T13:14:13.217Z,1.27
2018-12-08T13:15:15.965Z,1.10
2018-12-08T13:16:18.469Z,1.60
2018-12-08T13:17:21.010Z,1.27
2018-12-08T13:18:23.574Z,0.90
2018-12-08T13:19:26.077Z,1.00
2018-12-08T13:20:28.622Z,1.30
2018-12-08T13:21:31.126Z,1.12
2018-12-08T13:22:33.631Z,1.10
2018-12-08T13:23:36.200Z,1.00
2018-12-08T13:24:38.754Z,0.98
2018-12-08T13:25:41.308Z,0.80
2018-12-08T13:26:43.808Z,1.00
2018-12-08T13:27:46.318Z,0.80
2018-12-08T13:28:48.829Z,0.93
2018-12-08T13:29:51.331Z,0.93
2018-12-08T13:30:53.917Z,0.98
2018-12-08T13:31:56.470Z,0.82
2018-12-08T13:32:58.969Z,0.80
2018-12-08T13:34:09.310Z,1.07
2018-12-08T13:35:19.677Z,1.00
2018-12-08T13:36:22.215Z,1.02
2018-12-08T13:37:24.722Z,0.85
2018-12-08T13:38:27.238Z,0.88
2018-12-08T13:39:29.802Z,0.85
2018-12-08T13:40:32.304Z,0.90
2018-12-08T13:41:34.815Z,1.10
2018-12-08T13:42:37.366Z,0.72
2018-12-08T13:43:41.646Z,0.90
2018-12-08T13:44:44.149Z,0.90
2018-12-08T13:45:46.702Z,0.80
2018-12-08T13:46:49.241Z,0.95
2018-12-08T13:47:51.737Z,0.80
2018-12-08T13:48:54.297Z,0.72
2018-12-08T13:49:56.826Z,0.70
2018-12-08T13:50:59.383Z,0.82
2018-12-08T13:52:01.889Z,0.95
2018-12-08T13:53:04.389Z,0.90
2018-12-08T13:54:06.987Z,1.17
2018-12-08T13:55:09.544Z,0.80